createdAt,value
2023-12-08T00:01:24.328Z,57.0550838
2023-12-08T00:03:25.404Z,57.1083574
2023-12-08T00:05:26.485Z,57.17293049999999
2023-12-08T00:07:27.825Z,57.185845199999996
2023-12-08T00:09:28.684Z,57.371494799999994
2023-12-08T00:11:29.795Z,57.4473702
2023-12-08T00:13:30.844Z,57.4990288
2023-12-08T00:15:31.929Z,57.558758699999984
2023-12-08T00:17:33.021Z,57.684680400000005
2023-12-08T00:19:34.348Z,57.70243860000001
2023-12-08T00:21:35.167Z,57.7686282
2023-12-08T00:23:36.252Z,57.84127530000001
2023-12-08T00:25:37.343Z,57.9074645
2023-12-08T00:27:38.436Z,57.868719399999996
2023-12-08T00:29:39.523Z,57.894549500000004
2023-12-08T00:31:40.626Z,57.8590331
2023-12-08T00:33:41.813Z,57.8122161
2023-12-08T00:35:42.779Z,57.77347089999999
2023-12-08T00:37:43.871Z,57.70243850000001
2023-12-08T00:39:44.965Z,57.60719
2023-12-08T00:41:46.063Z,57.56037299999999
2023-12-08T00:43:47.110Z,57.53615729999999
2023-12-08T00:45:48.201Z,57.51355600000001
2023-12-08T00:47:49.347Z,57.600732199999996
2023-12-08T00:49:50.378Z,57.670150600000014
2023-12-08T00:51:51.451Z,57.67176500000001
2023-12-08T00:53:52.586Z,57.68467999999999
2023-12-08T00:55:53.618Z,57.702438199999996
2023-12-08T00:57:54.709Z,57.5829741
2023-12-08T00:59:55.834Z,57.5200133
2023-12-08T01:01:56.880Z,57.44090940000001
2023-12-08T01:03:58.022Z,57.3069181
2023-12-08T01:05:59.078Z,57.19552749999999
2023-12-08T01:08:00.181Z,57.095442000000006
2023-12-08T01:10:01.209Z,57.0066543
2023-12-08T01:12:02.338Z,57.02118360000001
2023-12-08T01:14:03.396Z,57.04055569999999
2023-12-08T01:16:04.475Z,57.0357129
2023-12-08T01:18:05.646Z,57.158400300000004
2023-12-08T01:20:06.639Z,57.203599999999994
2023-12-08T01:22:07.724Z,57.1664705
2023-12-08T01:24:08.885Z,57.158398999999996
2023-12-08T01:26:09.905Z,57.1002845
2023-12-08T01:28:10.979Z,57.042168200000006
2023-12-08T01:30:12.110Z,57.0260254
2023-12-08T01:32:13.154Z,57.0244115
2023-12-08T01:35:14.779Z,56.9695248
2023-12-08T01:37:15.865Z,57.0340963
2023-12-08T01:40:17.511Z,57.042168000000004
2023-12-08T01:42:18.615Z,57.0340966
2023-12-08T01:44:19.678Z,57.1035126
2023-12-08T01:46:20.790Z,57.25526000000001
2023-12-08T01:48:21.953Z,57.2859335
2023-12-08T01:50:22.927Z,57.27463329999999
2023-12-08T01:52:24.013Z,57.21328960000001
2023-12-08T01:54:25.109Z,57.0567004
2023-12-08T01:56:26.183Z,56.874281399999994
2023-12-08T01:58:27.270Z,56.7160765
2023-12-08T02:00:28.385Z,56.596615799999995
2023-12-08T02:02:29.464Z,56.6208312
2023-12-08T02:04:30.549Z,56.61275979999999
2023-12-08T02:06:31.620Z,56.617602899999994
2023-12-08T02:08:32.707Z,56.570785799999996
2023-12-08T02:10:33.783Z,56.520740300000014
2023-12-08T02:12:34.876Z,56.4367928
2023-12-08T02:14:35.980Z,56.3802914
2023-12-08T02:16:37.072Z,56.293115
2023-12-08T02:18:38.275Z,56.246298
2023-12-08T02:20:39.229Z,56.2898863
2023-12-08T02:22:40.290Z,56.34154650000001
2023-12-08T02:24:41.376Z,56.3447753
2023-12-08T02:26:42.509Z,56.3415466
2023-12-08T02:28:43.558Z,56.3883637
2023-12-08T02:30:44.646Z,56.39482120000001
2023-12-08T02:32:45.777Z,56.38352050000001
2023-12-08T02:34:46.854Z,56.291500799999994
2023-12-08T02:36:47.898Z,56.2172394
2023-12-08T02:38:49.079Z,56.2349976
2023-12-08T02:40:50.055Z,56.163964899999996
2023-12-08T02:42:51.147Z,56.1139192
2023-12-08T02:44:52.594Z,56.070330999999996
2023-12-08T02:46:53.330Z,56.109076
2023-12-08T02:48:55.278Z,56.05095829999999
2023-12-08T02:50:55.501Z,56.049344
2023-12-08T02:52:56.571Z,56.0816316
2023-12-08T02:54:57.649Z,56.20109560000001
2023-12-08T02:56:58.820Z,56.26567
2023-12-08T02:58:59.845Z,56.338317100000005
2023-12-08T03:01:00.963Z,56.415807300000004
2023-12-08T03:03:02.075Z,56.4238792
2023-12-08T03:05:03.088Z,56.385134099999995
2023-12-08T03:07:04.175Z,56.3463898
2023-12-08T03:09:05.284Z,56.29150080000001
2023-12-08T03:11:06.350Z,56.281814499999996
2023-12-08T03:13:07.440Z,56.236611800000006
2023-12-08T03:15:08.549Z,56.1930235
2023-12-08T03:17:09.605Z,56.2107817
2023-12-08T03:19:10.749Z,56.0897033
2023-12-08T03:21:11.805Z,56.0396575
2023-12-08T03:23:12.861Z,55.994454899999994
2023-12-08T03:25:13.944Z,55.88629149999999
2023-12-08T03:27:15.033Z,55.778127999999995
2023-12-08T03:29:16.115Z,55.690951500000004
2023-12-08T03:31:17.203Z,55.5036831
2023-12-08T03:33:18.370Z,55.3809886
2023-12-08T03:35:19.368Z,55.38098829999999
2023-12-08T03:37:20.456Z,55.4181191
2023-12-08T03:39:21.564Z,55.561798800000005
2023-12-08T03:41:22.661Z,55.7426097
2023-12-08T03:43:23.706Z,55.89597740000001
2023-12-08T03:45:24.807Z,56.0574157
2023-12-08T03:47:26.207Z,56.14136339999999
2023-12-08T03:50:27.523Z,56.151049799999996
2023-12-08T03:52:28.609Z,56.1623505
2023-12-08T03:54:29.692Z,56.1865662
2023-12-08T03:56:30.774Z,56.2317688
2023-12-08T03:58:31.869Z,56.2301544
2023-12-08T04:00:32.939Z,56.2301543
2023-12-08T04:02:34.102Z,56.2705138
2023-12-08T04:04:35.170Z,56.2592132
2023-12-08T04:06:36.188Z,56.1897949
2023-12-08T04:08:37.310Z,56.2769715
2023-12-08T04:10:38.382Z,56.2931154
2023-12-08T04:12:39.442Z,56.241455300000005
2023-12-08T04:14:41.011Z,56.254370300000005
2023-12-08T04:16:41.630Z,56.2834291
2023-12-08T04:18:42.773Z,56.2446839
2023-12-08T04:20:43.834Z,56.2349976
2023-12-08T04:22:44.903Z,56.3480038
2023-12-08T04:24:45.966Z,56.419036399999996
2023-12-08T04:26:47.074Z,56.3899775
2023-12-08T04:28:48.130Z,56.3819056
2023-12-08T04:30:49.214Z,56.3415461
2023-12-08T04:33:50.888Z,56.28181440000001
2023-12-08T04:35:51.954Z,56.297958200000004
2023-12-08T04:37:53.049Z,56.3544616
2023-12-08T04:39:54.122Z,56.323788300000004
2023-12-08T04:41:55.210Z,56.2705137
2023-12-08T04:43:56.287Z,56.24952669999999
2023-12-08T04:45:57.372Z,56.1575071
2023-12-08T04:47:58.485Z,56.10746119999999
2023-12-08T04:49:59.555Z,56.1510496
2023-12-08T04:52:00.620Z,56.246298
2023-12-08T04:56:02.810Z,56.2624418
2023-12-08T04:58:03.940Z,56.328631400000006
2023-12-08T05:00:04.970Z,56.3205596
2023-12-08T05:02:06.048Z,56.37383390000001
2023-12-08T05:04:07.166Z,56.4335647
2023-12-08T05:06:08.263Z,56.448094100000006
2023-12-08T05:08:09.305Z,56.41096339999999
2023-12-08T05:10:10.393Z,56.4884536
2023-12-08T05:12:11.543Z,56.448094299999994
2023-12-08T05:14:12.552Z,56.3819061
2023-12-08T05:16:13.654Z,56.472309800000005
2023-12-08T05:18:14.852Z,56.5659438
2023-12-08T05:20:15.822Z,56.58854510000001
2023-12-08T05:22:16.908Z,56.6418197
2023-12-08T05:24:17.999Z,56.691865400000005
2023-12-08T05:26:19.094Z,56.648278700000006
2023-12-08T05:28:21.168Z,56.5820892
2023-12-08T05:30:21.240Z,56.540115300000004
2023-12-08T05:32:22.328Z,56.496527
2023-12-08T05:34:23.484Z,56.4271087
2023-12-08T05:36:24.571Z,56.3948211
2023-12-08T05:38:25.579Z,56.3625335
2023-12-08T05:40:26.656Z,56.322174000000004
2023-12-08T05:42:43.249Z,56.288272000000006
2023-12-08T05:44:28.830Z,56.273742600000006
2023-12-08T05:46:29.919Z,56.34477499999999
2023-12-08T05:48:31.110Z,56.349618199999995
2023-12-08T05:50:32.106Z,56.48845300000001
2023-12-08T05:53:33.733Z,56.49652490000001
2023-12-08T05:55:34.804Z,56.5078255
2023-12-08T05:57:35.972Z,56.4981374
2023-12-08T05:59:37.025Z,56.6967
2023-12-08T06:01:38.067Z,56.87589180000001
2023-12-08T06:03:39.148Z,57.08736950000001
2023-12-08T06:05:40.302Z,57.2132875
2023-12-08T06:07:41.433Z,57.268176200000006
2023-12-08T06:09:42.407Z,57.221361000000016
2023-12-08T06:11:43.526Z,57.1131987
2023-12-08T06:13:44.589Z,57.064768
2023-12-08T06:15:45.664Z,57.0986697
2023-12-08T06:17:46.790Z,57.2488027
2023-12-08T06:19:47.846Z,57.298846100000006
2023-12-08T06:21:48.915Z,57.374720100000005
2023-12-08T06:23:50.056Z,57.4425231
2023-12-08T06:26:51.655Z,57.38279329999999
2023-12-08T06:28:52.723Z,57.2843173
2023-12-08T06:30:53.815Z,57.2488022
2023-12-08T06:32:55.009Z,57.0583114
2023-12-08T06:34:55.976Z,56.8758912
2023-12-08T06:36:57.068Z,56.827462600000004
2023-12-08T06:38:58.149Z,56.75158990000001
2023-12-08T06:40:59.225Z,56.74029
2023-12-08T06:44:00.857Z,56.86136380000001
2023-12-08T06:46:01.954Z,56.906566
2023-12-08T06:48:03.137Z,56.9130227
2023-12-08T06:50:04.102Z,56.9517675
2023-12-08T06:52:05.206Z,56.96791040000001
2023-12-08T06:54:06.340Z,57.016340700000015
2023-12-08T06:56:07.402Z,57.0534704
2023-12-08T06:58:08.460Z,57.113201100000005
2023-12-08T07:01:10.113Z,57.29562069999999
2023-12-08T07:03:11.278Z,57.3634226
2023-12-08T07:05:12.259Z,57.316608200000005
2023-12-08T07:07:13.338Z,57.263334199999996
2023-12-08T07:09:14.526Z,57.1358021
2023-12-08T07:11:15.509Z,56.98889700000001
2023-12-08T07:13:16.591Z,56.850064700000004
2023-12-08T07:15:17.733Z,56.83715070000001
2023-12-08T07:17:18.771Z,56.830693800000006
2023-12-08T07:19:20.025Z,56.8565239
2023-12-08T07:21:20.929Z,56.90333980000001
2023-12-08T07:23:22.041Z,56.95822750000001
2023-12-08T07:25:23.095Z,57.119661300000004
2023-12-08T07:27:25.404Z,57.35374349999999
2023-12-08T07:29:25.273Z,57.5539208
2023-12-08T07:31:26.356Z,57.670153799999994
2023-12-08T07:33:27.598Z,57.9704253
2023-12-08T07:35:28.548Z,58.110877
2023-12-08T07:38:30.162Z,58.1463934
2023-12-08T07:41:31.790Z,58.3013742
2023-12-08T07:43:32.929Z,58.5015584
2023-12-08T07:45:33.957Z,58.6888311
2023-12-08T07:47:35.169Z,58.746949400000005
2023-12-08T07:49:36.195Z,58.814753800000005
2023-12-08T07:51:37.232Z,58.74694960000001
2023-12-08T07:53:38.327Z,58.6161838
2023-12-08T07:55:39.389Z,58.41599599999999
2023-12-08T07:57:40.469Z,58.18029519999999
2023-12-08T07:59:41.596Z,57.986569200000005
2023-12-08T08:01:42.635Z,57.86064749999999
2023-12-08T08:03:43.768Z,57.7847716
2023-12-08T08:05:44.897Z,57.80414420000001
2023-12-08T08:07:45.901Z,57.846118000000004
2023-12-08T08:09:46.994Z,57.867104999999995
2023-12-08T08:11:48.118Z,57.883248800000004
2023-12-08T08:13:49.167Z,57.867105
2023-12-08T08:15:50.249Z,57.8574187
2023-12-08T08:17:51.366Z,57.85580430000001
2023-12-08T08:19:52.449Z,57.7621702
2023-12-08T08:22:25.790Z,57.6556211
2023-12-08T08:23:54.605Z,57.584588399999994
2023-12-08T08:25:56.538Z,57.419921699999996
2023-12-08T08:27:56.787Z,57.3295164
2023-12-08T08:29:57.881Z,57.37471909999999
2023-12-08T08:31:58.929Z,57.48934010000001
2023-12-08T08:34:00.078Z,57.61849049999999
2023-12-08T08:36:01.126Z,57.7799285
2023-12-08T08:38:02.192Z,57.941366599999995
2023-12-08T08:40:03.275Z,58.08988949999999
2023-12-08T08:42:04.370Z,58.164151000000004
2023-12-08T08:44:05.437Z,58.114105200000004
2023-12-08T08:47:07.143Z,58.036615
2023-12-08T08:49:08.238Z,57.9171509
2023-12-08T08:51:09.252Z,57.7960724
2023-12-08T08:54:10.908Z,57.7993011
2023-12-08T08:56:11.946Z,57.839660600000016
2023-12-08T08:58:13.049Z,57.8945495
2023-12-08T09:00:14.276Z,57.8993926
2023-12-08T09:02:15.199Z,57.973653999999996
2023-12-08T09:04:16.386Z,57.9575102
2023-12-08T09:06:17.450Z,58.0382293
2023-12-08T09:08:18.463Z,58.0785888
2023-12-08T09:10:19.610Z,58.12056259999999
2023-12-08T09:12:20.718Z,58.13024889999999
2023-12-08T09:14:21.734Z,58.2384125
2023-12-08T09:16:22.822Z,58.285230100000014
2023-12-08T09:18:23.971Z,58.449901999999994
2023-12-08T09:20:25.001Z,58.606498099999996
2023-12-08T09:22:26.171Z,58.7453348
2023-12-08T09:24:27.280Z,58.766323000000014
2023-12-08T09:26:28.230Z,58.830901700000005
2023-12-08T09:28:29.309Z,58.75824999999999
2023-12-08T09:30:30.447Z,58.6839873
2023-12-08T09:32:31.516Z,58.66945820000001
2023-12-08T09:34:34.029Z,58.6290973
2023-12-08T09:36:33.696Z,58.6161815
2023-12-08T09:38:35.029Z,58.7340334
2023-12-08T09:40:35.823Z,58.893862699999985
2023-12-08T09:42:36.907Z,59.1101897
2023-12-08T09:44:38.023Z,59.3023026
2023-12-08T09:46:39.093Z,59.37656500000001
2023-12-08T09:48:40.318Z,59.3797951
2023-12-08T09:50:41.356Z,59.384637899999994
2023-12-08T09:52:42.357Z,59.3555808
2023-12-08T09:54:43.424Z,59.3668807
2023-12-08T09:56:44.533Z,59.3523522
2023-12-08T09:58:46.371Z,59.3475093
2023-12-08T10:00:46.716Z,59.370107600000004
2023-12-08T10:02:47.813Z,59.2958492
2023-12-08T10:04:48.908Z,59.2006052
2023-12-08T10:06:51.403Z,59.0875946
2023-12-08T10:08:51.038Z,58.9406826
2023-12-08T10:10:52.105Z,58.75825580000001
2023-12-08T10:12:53.186Z,58.595198200000006
2023-12-08T10:14:54.310Z,58.47734340000001
2023-12-08T10:19:57.001Z,58.48380000000001
2023-12-08T10:21:58.088Z,58.577437800000006
2023-12-08T10:23:59.191Z,58.68398989999999
2023-12-08T10:26:00.252Z,58.8131441
2023-12-08T10:28:01.332Z,58.82444509999999
2023-12-08T10:30:02.446Z,58.863192600000005
2023-12-08T10:32:03.497Z,58.8099148
2023-12-08T10:34:04.656Z,58.81960170000001
2023-12-08T10:36:05.705Z,58.8422039
2023-12-08T10:38:06.798Z,58.9051668
2023-12-08T10:40:07.940Z,58.939070900000004
2023-12-08T10:42:08.962Z,59.01010649999999
2023-12-08T10:44:10.036Z,59.04885409999999
2023-12-08T10:46:11.109Z,59.07145480000001
2023-12-08T10:48:12.227Z,59.0746838
2023-12-08T10:50:13.361Z,59.142485699999995
2023-12-08T10:52:14.358Z,59.18768879999999
2023-12-08T10:54:15.496Z,59.1586281
2023-12-08T10:56:16.744Z,59.1457141
2023-12-08T10:58:17.629Z,59.2006032
2023-12-08T11:00:18.968Z,59.198989000000005
2023-12-08T11:02:19.787Z,59.318449099999995
2023-12-08T11:04:20.933Z,59.483112500000004
2023-12-08T11:06:22.007Z,59.676832000000005
2023-12-08T11:08:23.065Z,59.79306330000001
2023-12-08T11:10:24.158Z,59.915753200000005
2023-12-08T11:16:27.414Z,59.944812
2023-12-08T11:18:28.595Z,59.99647209999999
2023-12-08T11:20:29.601Z,59.9544982
2023-12-08T11:22:30.672Z,59.82373700000001
2023-12-08T11:24:31.752Z,59.8753974
2023-12-08T11:26:32.851Z,59.8592536
2023-12-08T11:29:34.458Z,59.79467850000001
2023-12-08T11:31:35.545Z,59.82212300000001
2023-12-08T11:33:36.701Z,59.943197999999995
2023-12-08T11:35:37.733Z,59.85117799999999
2023-12-08T11:37:38.813Z,59.8237335
2023-12-08T11:39:39.889Z,59.91252440000001
2023-12-08T11:41:40.995Z,59.87539369999998
2023-12-08T11:43:42.079Z,59.9302826
2023-12-08T11:45:43.149Z,59.9109107
2023-12-08T11:47:44.449Z,60.017459800000005
2023-12-08T11:49:45.341Z,60.07557749999999
2023-12-08T11:51:46.404Z,60.12562330000001
2023-12-08T11:53:47.501Z,60.09817869999999
2023-12-08T11:55:48.612Z,60.1127075
2023-12-08T11:57:49.653Z,60.033602900000005
2023-12-08T11:59:50.729Z,59.9399689
2023-12-08T12:01:51.820Z,59.899609299999995
2023-12-08T12:04:53.490Z,59.920596300000014
2023-12-08T12:06:54.524Z,59.93674010000001
2023-12-08T12:08:55.632Z,59.9674133
2023-12-08T12:10:56.692Z,59.99970079999999
2023-12-08T12:13:58.343Z,60.0223026
2023-12-08T12:15:59.406Z,60.0061588
2023-12-08T12:18:00.590Z,60.0110019
2023-12-08T12:20:01.571Z,60.0481327
2023-12-08T12:22:02.706Z,60.1030213
2023-12-08T12:24:03.804Z,60.183739700000004
2023-12-08T12:26:04.829Z,60.28705990000001
2023-12-08T12:28:05.901Z,60.3887654
2023-12-08T12:30:07.232Z,60.4436539
2023-12-08T12:32:08.091Z,60.4775561
2023-12-08T12:34:09.285Z,60.55504570000001
2023-12-08T12:36:10.273Z,60.59055980000001
2023-12-08T12:38:11.352Z,60.6680464
2023-12-08T12:40:12.440Z,60.6648184
2023-12-08T12:42:13.575Z,60.6777326
2023-12-08T12:44:14.619Z,60.73262030000001
2023-12-08T12:46:15.682Z,60.753605900000004
2023-12-08T12:48:16.887Z,60.75199160000001
2023-12-08T12:50:17.856Z,60.79073530000001
2023-12-08T12:52:18.936Z,60.9311823
2023-12-08T12:54:20.038Z,61.000596300000005
2023-12-08T12:57:21.714Z,61.065167499999994
2023-12-08T12:59:22.741Z,61.08292719999999
2023-12-08T13:01:23.920Z,61.18786610000001
2023-12-08T13:03:25.297Z,61.328316400000006
2023-12-08T13:05:26.070Z,61.4316422
2023-12-08T13:07:27.190Z,61.48330399999999
2023-12-08T13:09:28.238Z,61.565635
2023-12-08T13:11:29.262Z,61.633435000000006
2023-12-08T13:13:30.337Z,61.5785487
2023-12-08T13:15:31.466Z,61.6415057
2023-12-08T13:17:32.640Z,61.7658125
2023-12-08T13:19:33.734Z,61.80455969999999
2023-12-08T13:21:34.722Z,61.7884192
2023-12-08T13:23:35.773Z,61.76097639999999
2023-12-08T13:25:36.870Z,61.75129059999999
2023-12-08T13:27:37.949Z,61.723847899999996
2023-12-08T13:29:39.030Z,61.702861999999996
2023-12-08T13:31:40.152Z,61.65120280000001
2023-12-08T13:34:41.862Z,61.656045600000006
2023-12-08T13:36:42.835Z,61.6802598
2023-12-08T13:38:43.947Z,61.710932400000004
2023-12-08T13:40:45.001Z,61.73676109999999
2023-12-08T13:42:46.119Z,61.748061899999996
2023-12-08T13:44:47.245Z,61.77711889999999
2023-12-08T13:46:48.255Z,61.833619799999994
2023-12-08T13:48:49.400Z,61.843305799999996
2023-12-08T13:50:54.592Z,61.90787709999999
2023-12-08T13:52:51.502Z,61.96760680000001
2023-12-08T13:54:52.587Z,62.0402518
2023-12-08T13:56:53.701Z,62.03540979999999
2023-12-08T13:58:54.763Z,62.0806113
2023-12-08T14:00:55.878Z,62.0741541
2023-12-08T14:02:56.975Z,62.1581002
2023-12-08T14:04:58.030Z,62.162943600000006
2023-12-08T14:06:59.129Z,62.25011859999999
2023-12-08T14:09:00.247Z,62.288862800000004
2023-12-08T14:11:01.278Z,62.3469796
2023-12-08T14:13:02.372Z,62.27271989999999
2023-12-08T14:15:03.477Z,62.34052419999999
2023-12-08T14:17:04.545Z,62.338909799999996
2023-12-08T14:19:05.713Z,62.4083305
2023-12-08T14:21:06.748Z,62.543942300000005
2023-12-08T14:23:07.789Z,62.7715729
2023-12-08T14:25:08.864Z,62.8280795
2023-12-08T14:27:09.986Z,62.8975013
2023-12-08T14:29:11.047Z,62.94916199999999
2023-12-08T14:31:12.130Z,62.94916319999999
2023-12-08T14:33:13.286Z,62.8361523
2023-12-08T14:35:19.025Z,62.7861035
2023-12-08T14:37:15.380Z,62.781260800000005
2023-12-08T14:39:17.301Z,62.71991320000001
2023-12-08T14:41:17.558Z,62.621431300000005
2023-12-08T14:43:18.651Z,62.634346900000004
2023-12-08T14:45:19.784Z,62.63273220000001
2023-12-08T14:47:20.819Z,62.543937400000004
2023-12-08T14:49:22.079Z,62.5520096
2023-12-08T14:52:23.537Z,62.555237999999996
2023-12-08T14:54:26.414Z,62.640805
2023-12-08T14:56:25.706Z,62.7021549
2023-12-08T14:58:26.800Z,62.81355229999999
2023-12-08T15:00:27.934Z,62.8070944
2023-12-08T15:02:28.952Z,62.905576100000005
2023-12-08T15:04:30.160Z,62.902346399999985
2023-12-08T15:08:32.210Z,62.92494939999999
2023-12-08T15:10:33.300Z,62.987908100000006
2023-12-08T15:12:34.372Z,63.07831660000001
2023-12-08T15:14:35.471Z,63.1219042
2023-12-08T15:16:36.557Z,63.21553350000001
2023-12-08T15:18:37.803Z,63.267191000000004
2023-12-08T15:20:38.744Z,63.2704195
2023-12-08T15:22:39.801Z,63.34951930000001
2023-12-08T15:24:40.899Z,63.3801907
2023-12-08T15:26:42.027Z,63.2849468
2023-12-08T15:28:43.055Z,63.3269182
2023-12-08T15:30:44.164Z,63.2752603
2023-12-08T15:32:45.268Z,63.2155304
2023-12-08T15:34:46.349Z,63.233287499999996
2023-12-08T15:36:47.423Z,63.3575901
2023-12-08T15:38:48.500Z,63.410863799999994
2023-12-08T15:40:49.575Z,63.5593817
2023-12-08T15:42:50.666Z,63.623954800000014
2023-12-08T15:44:51.776Z,63.6788427
2023-12-08T15:46:52.835Z,63.7224307
2023-12-08T15:48:53.983Z,63.746646399999996
2023-12-08T15:50:55.045Z,63.8225222
2023-12-08T15:52:56.106Z,63.92745670000001
2023-12-08T15:54:57.174Z,64.0243194
2023-12-08T15:56:58.284Z,64.19544370000001
2023-12-08T15:58:59.350Z,64.37948300000001
2023-12-08T16:01:00.474Z,64.45858770000001
2023-12-08T16:03:01.537Z,64.5296204
2023-12-08T16:05:02.611Z,64.6184113
2023-12-08T16:07:03.697Z,64.6749146
2023-12-08T16:09:04.793Z,64.6781433
2023-12-08T16:11:05.875Z,64.7249602
2023-12-08T16:13:06.961Z,64.76693410000001
2023-12-08T16:15:08.054Z,64.8589537
2023-12-08T16:17:09.111Z,64.81859419999999
2023-12-08T16:19:10.288Z,64.808908
2023-12-08T16:21:11.339Z,64.8185943
2023-12-08T16:23:12.397Z,64.7863067
2023-12-08T16:25:13.469Z,64.8169799
2023-12-08T16:27:14.559Z,64.8250519
2023-12-08T16:29:15.646Z,64.7782349
2023-12-08T16:31:16.715Z,64.7540192
2023-12-08T16:33:17.879Z,64.689444
2023-12-08T16:35:18.902Z,64.5732087
2023-12-08T16:38:20.511Z,64.46020209999999
2023-12-08T16:40:21.602Z,64.421457
2023-12-08T16:42:22.700Z,64.32943730000001
2023-12-08T16:44:23.759Z,64.31490790000001
2023-12-08T16:46:24.957Z,64.4392151
2023-12-08T16:48:26.005Z,64.594195
2023-12-08T16:50:27.022Z,64.8363499
2023-12-08T16:52:28.247Z,65.0575198
2023-12-08T16:54:29.255Z,65.348105
2023-12-08T16:56:30.272Z,65.4804826
2023-12-08T16:58:31.357Z,65.4804831
2023-12-08T17:00:32.516Z,65.4175234
2023-12-08T17:02:33.531Z,65.3529484
2023-12-08T17:04:34.678Z,65.2060429
2023-12-08T17:06:35.716Z,65.1640707
2023-12-08T17:08:36.778Z,65.1931294
2023-12-08T17:10:37.904Z,65.25286080000001
2023-12-08T17:12:38.986Z,65.2964484
2023-12-08T17:14:40.041Z,65.2803046
2023-12-08T17:16:41.126Z,65.30452030000001
2023-12-08T17:18:42.314Z,65.26738950000001
2023-12-08T17:20:43.310Z,65.0720498
2023-12-08T17:22:44.374Z,64.91222780000001
2023-12-08T17:24:45.478Z,64.88316970000001
2023-12-08T17:28:47.641Z,64.8202086
2023-12-08T17:30:48.723Z,64.86541120000001
2023-12-08T17:32:49.878Z,64.754019
2023-12-08T17:34:51.019Z,64.61356789999999
2023-12-08T17:36:52.093Z,64.5602934
2023-12-08T17:38:53.074Z,64.4585877
2023-12-08T17:40:54.150Z,64.4892609
2023-12-08T17:42:55.240Z,64.50863340000001
2023-12-08T17:44:56.354Z,64.6377837
2023-12-08T17:46:57.408Z,64.6862151
2023-12-08T17:48:58.538Z,64.6959014
2023-12-08T17:50:59.616Z,64.64101250000002
2023-12-08T17:53:00.663Z,64.62002550000001
2023-12-08T17:55:01.762Z,64.5118621
2023-12-08T17:57:02.880Z,64.4489013
2023-12-08T17:59:03.931Z,64.3891692
2023-12-08T18:01:05.034Z,64.3229796
2023-12-08T18:03:06.151Z,64.1647706
2023-12-08T18:05:07.188Z,64.0227051
2023-12-08T18:07:08.300Z,63.7837799
2023-12-08T18:09:09.407Z,63.6562459
2023-12-08T18:11:10.435Z,63.5303243
2023-12-08T18:13:11.524Z,63.5609974
2023-12-08T18:15:12.645Z,63.5190244
2023-12-08T18:17:13.762Z,63.56099549999999
2023-12-08T18:19:14.863Z,63.5157933
2023-12-08T18:21:15.893Z,63.48189309999999
2023-12-08T18:23:16.950Z,63.3091585
2023-12-08T18:25:18.095Z,63.20745670000001
2023-12-08T18:27:23.760Z,63.1009104
2023-12-08T18:29:20.258Z,63.03149380000001
2023-12-08T18:31:21.289Z,62.86844120000001
2023-12-08T18:33:22.468Z,62.82323670000001
2023-12-08T18:35:23.476Z,62.78933099999999
2023-12-08T18:38:25.090Z,62.9217072
2023-12-08T18:40:26.168Z,63.050853499999995
2023-12-08T18:43:27.807Z,63.2833226
2023-12-08T18:45:28.926Z,63.4851182
2023-12-08T18:47:30.001Z,63.682071300000004
2023-12-08T18:49:31.129Z,63.656241699999995
2023-12-08T18:51:32.167Z,63.62556920000001
2023-12-08T18:53:33.215Z,63.59005310000001
2023-12-08T18:55:34.336Z,63.6126541
2023-12-08T18:57:35.412Z,63.6304122
2023-12-08T18:59:36.485Z,63.7046731
2023-12-08T19:01:37.593Z,63.7708619
2023-12-08T19:03:38.687Z,63.816064299999994
2023-12-08T19:05:39.786Z,63.78054790000001
2023-12-08T19:07:40.842Z,63.7321166
2023-12-08T19:09:41.935Z,63.6045842
2023-12-08T19:11:43.003Z,63.606199100000005
2023-12-08T19:13:44.110Z,63.5916705
2023-12-08T19:15:45.157Z,63.514183700000004
2023-12-08T19:17:46.321Z,63.47382650000001
2023-12-08T19:19:47.378Z,63.5706861
2023-12-08T19:21:48.425Z,63.560999300000006
2023-12-08T19:23:49.546Z,63.48996900000001
2023-12-08T19:25:50.593Z,63.52709820000001
2023-12-08T19:27:51.699Z,63.489967899999996
2023-12-08T19:29:52.798Z,63.4463805
2023-12-08T19:31:53.854Z,63.368892200000005
2023-12-08T19:33:55.006Z,63.381805400000005
2023-12-08T19:35:56.034Z,63.359205200000005
2023-12-08T19:37:57.102Z,63.385034700000006
2023-12-08T19:39:58.191Z,63.3527481
2023-12-08T19:42:00.024Z,63.3220777
2023-12-08T19:44:00.352Z,63.357592999999994
2023-12-08T19:46:01.446Z,63.299478
2023-12-08T19:48:02.691Z,63.27526379999999
2023-12-08T19:51:04.181Z,63.26880609999999
2023-12-08T19:53:05.261Z,63.2494339
2023-12-08T19:55:06.333Z,63.1525758
2023-12-08T19:57:07.449Z,63.25589040000001
2023-12-08T19:59:08.526Z,63.267190199999995
2023-12-08T20:01:09.628Z,63.2462051
2023-12-08T20:03:10.711Z,63.320463
2023-12-08T20:05:11.770Z,63.386648600000015
2023-12-08T20:08:13.382Z,63.34467659999999
2023-12-08T20:10:14.487Z,63.4189358
2023-12-08T20:15:17.535Z,63.506108399999995
2023-12-08T20:17:22.383Z,63.5174076
2023-12-08T20:19:19.494Z,63.51579340000001
2023-12-08T20:21:20.471Z,63.533550500000004
2023-12-08T20:23:21.539Z,63.5206358
2023-12-08T20:25:22.621Z,63.5335508
2023-12-08T20:27:23.805Z,63.52063680000001
2023-12-08T20:29:24.801Z,63.525479600000004
2023-12-08T20:31:25.867Z,63.4657517
2023-12-08T20:33:27.039Z,63.4722083
2023-12-08T20:35:28.032Z,63.439922100000004
2023-12-08T20:37:29.239Z,63.438308000000006
2023-12-08T20:39:30.262Z,63.4609097
2023-12-08T20:41:31.311Z,63.30108320000001
2023-12-08T20:43:32.380Z,63.144492099999994
2023-12-08T20:45:33.493Z,63.04763330000001
2023-12-08T20:47:34.581Z,62.9992024
2023-12-08T20:49:35.739Z,62.96045790000001
2023-12-08T20:51:36.727Z,63.1687123
2023-12-08T20:53:37.818Z,63.2316718
2023-12-08T20:55:38.904Z,63.197767299999995